sensor_id;sensor_type;location;lat;lon;timestamp;pressure;altitude;pressure_sealevel;temperature;humidity
16331;BME280;8275;48.206;16.340;2023-06-19T00:00:22;99016.06;;;25.65;35.32
16331;BME280;8275;48.206;16.340;2023-06-19T00:02:51;99017.63;;;25.62;35.62
16331;BME280;8275;48.206;16.340;2023-06-19T00:05:19;99026.78;;;25.59;35.42
16331;BME280;8275;48.206;16.340;2023-06-19T00:07:50;99018.25;;;25.56;35.51
16331;BME280;8275;48.206;16.340;2023-06-19T00:10:20;99019.78;;;25.53;35.63
16331;BME280;8275;48.206;16.340;2023-06-19T00:12:49;99027.75;;;25.51;35.63
16331;BME280;8275;48.206;16.340;2023-06-19T00:15:17;99023.66;;;25.49;35.79
16331;BME280;8275;48.206;16.340;2023-06-19T00:17:46;99020.41;;;25.47;36.03
16331;BME280;8275;48.206;16.340;2023-06-19T00:20:14;99013.19;;;25.46;35.92
16331;BME280;8275;48.206;16.340;2023-06-19T00:22:45;99015.53;;;25.44;35.85
16331;BME280;8275;48.206;16.340;2023-06-19T00:25:20;99013.88;;;25.43;36.14
16331;BME280;8275;48.206;16.340;2023-06-19T00:27:48;99020.63;;;25.42;36.14
16331;BME280;8275;48.206;16.340;2023-06-19T00:30:17;99014.56;;;25.40;36.30
16331;BME280;8275;48.206;16.340;2023-06-19T00:32:46;99011.31;;;25.38;36.53
16331;BME280;8275;48.206;16.340;2023-06-19T00:35:15;99020.09;;;25.36;36.31
16331;BME280;8275;48.206;16.340;2023-06-19T00:37:45;99013.22;;;25.34;36.26
16331;BME280;8275;48.206;16.340;2023-06-19T00:40:21;99020.75;;;25.30;36.48
16331;BME280;8275;48.206;16.340;2023-06-19T00:42:52;99024.69;;;25.29;36.50
16331;BME280;8275;48.206;16.340;2023-06-19T00:45:21;99022.16;;;25.24;36.76
16331;BME280;8275;48.206;16.340;2023-06-19T00:47:51;99024.88;;;25.20;36.64
16331;BME280;8275;48.206;16.340;2023-06-19T00:50:20;99020.78;;;25.18;36.89
16331;BME280;8275;48.206;16.340;2023-06-19T00:52:49;99024.31;;;25.15;36.94
16331;BME280;8275;48.206;16.340;2023-06-19T00:55:21;99021.41;;;25.11;36.85
16331;BME280;8275;48.206;16.340;2023-06-19T00:57:50;99020.59;;;25.10;37.07
16331;BME280;8275;48.206;16.340;2023-06-19T01:00:19;99019.31;;;25.08;37.01
16331;BME280;8275;48.206;16.340;2023-06-19T01:02:48;99020.97;;;25.09;37.08
16331;BME280;8275;48.206;16.340;2023-06-19T01:05:17;99024.09;;;25.07;37.30
16331;BME280;8275;48.206;16.340;2023-06-19T01:07:52;99021.22;;;25.04;37.21
16331;BME280;8275;48.206;16.340;2023-06-19T01:10:26;99013.97;;;25.03;37.27
16331;BME280;8275;48.206;16.340;2023-06-19T01:12:58;99023.13;;;25.00;37.28
16331;BME280;8275;48.206;16.340;2023-06-19T01:15:29;99017.06;;;24.98;37.37
16331;BME280;8275;48.206;16.340;2023-06-19T01:17:59;99021.38;;;24.95;37.67
16331;BME280;8275;48.206;16.340;2023-06-19T01:20:29;99015.66;;;24.92;37.45
16331;BME280;8275;48.206;16.340;2023-06-19T01:23:07;99022.47;;;24.91;37.86
16331;BME280;8275;48.206;16.340;2023-06-19T01:25:36;99017.66;;;24.91;37.80
16331;BME280;8275;48.206;16.340;2023-06-19T01:28:07;99017.19;;;24.89;37.85
16331;BME280;8275;48.206;16.340;2023-06-19T01:30:41;99028.31;;;24.86;37.94
16331;BME280;8275;48.206;16.340;2023-06-19T01:33:20;99016.97;;;24.82;38.05
16331;BME280;8275;48.206;16.340;2023-06-19T01:35:49;99024.09;;;24.80;38.16
16331;BME280;8275;48.206;16.340;2023-06-19T01:38:20;99012.81;;;24.76;38.01
16331;BME280;8275;48.206;16.340;2023-06-19T01:40:53;99024.69;;;24.73;38.06
16331;BME280;8275;48.206;16.340;2023-06-19T01:43:24;99010.59;;;24.70;38.16
16331;BME280;8275;48.206;16.340;2023-06-19T01:45:53;99004.88;;;24.66;38.18
16331;BME280;8275;48.206;16.340;2023-06-19T01:48:21;99012.81;;;24.64;38.21
16331;BME280;8275;48.206;16.340;2023-06-19T01:50:51;98997.91;;;24.60;38.22
16331;BME280;8275;48.206;16.340;2023-06-19T01:53:21;99005.03;;;24.58;38.27
16331;BME280;8275;48.206;16.340;2023-06-19T01:55:49;99006.53;;;24.55;38.27
16331;BME280;8275;48.206;16.340;2023-06-19T01:58:18;99008.44;;;24.51;38.54
16331;BME280;8275;48.206;16.340;2023-06-19T02:00:46;99003.91;;;24.47;38.40
16331;BME280;8275;48.206;16.340;2023-06-19T02:03:15;99012.63;;;24.45;38.63
16331;BME280;8275;48.206;16.340;2023-06-19T02:05:43;99009.75;;;24.41;38.62
16331;BME280;8275;48.206;16.340;2023-06-19T02:08:12;99021.63;;;24.38;38.53
16331;BME280;8275;48.206;16.340;2023-06-19T02:10:42;99016.31;;;24.33;38.59
16331;BME280;8275;48.206;16.340;2023-06-19T02:13:10;99014.19;;;24.30;38.66
16331;BME280;8275;48.206;16.340;2023-06-19T02:15:38;99011.28;;;24.27;38.67
16331;BME280;8275;48.206;16.340;2023-06-19T02:18:07;99016.41;;;24.25;38.78
16331;BME280;8275;48.206;16.340;2023-06-19T02:20:35;99017.47;;;24.20;38.94
16331;BME280;8275;48.206;16.340;2023-06-19T02:23:03;99014.56;;;24.17;38.92
16331;BME280;8275;48.206;16.340;2023-06-19T02:25:32;99017.25;;;24.13;39.18
16331;BME280;8275;48.206;16.340;2023-06-19T02:28:03;99013.53;;;24.09;39.21
16331;BME280;8275;48.206;16.340;2023-06-19T02:30:32;99024.63;;;24.06;39.46
16331;BME280;8275;48.206;16.340;2023-06-19T02:33:00;99025.75;;;24.05;39.31
16331;BME280;8275;48.206;16.340;2023-06-19T02:35:28;99025.28;;;24.03;39.52
16331;BME280;8275;48.206;16.340;2023-06-19T02:37:57;99021.19;;;24.00;39.65
16331;BME280;8275;48.206;16.340;2023-06-19T02:40:25;99020.28;;;23.96;39.82
16331;BME280;8275;48.206;16.340;2023-06-19T02:42:54;99021.44;;;23.95;39.86
16331;BME280;8275;48.206;16.340;2023-06-19T02:45:24;99012.56;;;23.93;40.11
16331;BME280;8275;48.206;16.340;2023-06-19T02:47:52;99010.13;;;23.92;40.35
16331;BME280;8275;48.206;16.340;2023-06-19T02:50:21;99011.66;;;23.89;40.35
16331;BME280;8275;48.206;16.340;2023-06-19T02:52:50;99011.97;;;23.88;40.30
16331;BME280;8275;48.206;16.340;2023-06-19T02:55:19;99010.72;;;23.85;40.76
16331;BME280;8275;48.206;16.340;2023-06-19T02:57:47;99012.69;;;23.85;40.97
16331;BME280;8275;48.206;16.340;2023-06-19T03:00:16;99013.03;;;23.83;41.19
16331;BME280;8275;48.206;16.340;2023-06-19T03:02:46;99020.97;;;23.81;41.15
16331;BME280;8275;48.206;16.340;2023-06-19T03:05:16;99021.78;;;23.82;41.00
16331;BME280;8275;48.206;16.340;2023-06-19T03:07:44;99027.75;;;23.80;41.34
16331;BME280;8275;48.206;16.340;2023-06-19T03:10:13;99016.09;;;23.78;41.33
16331;BME280;8275;48.206;16.340;2023-06-19T03:12:41;99018.88;;;23.78;41.52
16331;BME280;8275;48.206;16.340;2023-06-19T03:15:10;99029.56;;;23.76;41.51
16331;BME280;8275;48.206;16.340;2023-06-19T03:17:38;99026.78;;;23.76;41.13
16331;BME280;8275;48.206;16.340;2023-06-19T03:20:10;99027.97;;;23.75;41.25
16331;BME280;8275;48.206;16.340;2023-06-19T03:22:40;99023.97;;;23.76;41.58
16331;BME280;8275;48.206;16.340;2023-06-19T03:25:09;99021.53;;;23.74;41.23
16331;BME280;8275;48.206;16.340;2023-06-19T03:27:37;99026.00;;;23.76;41.50
16331;BME280;8275;48.206;16.340;2023-06-19T03:30:07;99036.34;;;23.75;41.43
16331;BME280;8275;48.206;16.340;2023-06-19T03:32:36;99038.31;;;23.74;41.66
16331;BME280;8275;48.206;16.340;2023-06-19T03:35:06;99029.94;;;23.74;41.44
16331;BME280;8275;48.206;16.340;2023-06-19T03:37:36;99034.72;;;23.74;41.81
16331;BME280;8275;48.206;16.340;2023-06-19T03:40:06;99037.19;;;23.76;41.88
16331;BME280;8275;48.206;16.340;2023-06-19T03:42:36;99040.75;;;23.76;41.77
16331;BME280;8275;48.206;16.340;2023-06-19T03:45:06;99032.72;;;23.74;41.75
16331;BME280;8275;48.206;16.340;2023-06-19T03:47:35;99035.16;;;23.76;41.77
16331;BME280;8275;48.206;16.340;2023-06-19T03:50:05;99028.41;;;23.77;41.54
16331;BME280;8275;48.206;16.340;2023-06-19T03:52:49;99024.94;;;23.80;41.68
16331;BME280;8275;48.206;16.340;2023-06-19T03:55:18;99038.22;;;23.83;41.67
16331;BME280;8275;48.206;16.340;2023-06-19T03:57:46;99039.50;;;23.86;41.69
16331;BME280;8275;48.206;16.340;2023-06-19T04:00:16;99041.59;;;23.89;41.76
16331;BME280;8275;48.206;16.340;2023-06-19T04:02:45;99032.16;;;23.93;41.79
16331;BME280;8275;48.206;16.340;2023-06-19T04:05:14;99038.69;;;23.97;41.57
16331;BME280;8275;48.206;16.340;2023-06-19T04:07:43;99045.22;;;24.01;41.67
16331;BME280;8275;48.206;16.340;2023-06-19T04:10:13;99039.72;;;24.05;41.74
16331;BME280;8275;48.206;16.340;2023-06-19T04:12:42;99042.34;;;24.10;41.66
16331;BME280;8275;48.206;16.340;2023-06-19T04:15:12;99042.09;;;24.15;41.88
16331;BME280;8275;48.206;16.340;2023-06-19T04:17:40;99044.31;;;24.21;41.85
16331;BME280;8275;48.206;16.340;2023-06-19T04:20:10;99041.28;;;24.26;41.65
16331;BME280;8275;48.206;16.340;2023-06-19T04:22:39;99044.63;;;24.32;41.77
16331;BME280;8275;48.206;16.340;2023-06-19T04:25:09;99046.84;;;24.38;41.71
16331;BME280;8275;48.206;16.340;2023-06-19T04:27:39;99047.41;;;24.44;41.59
16331;BME280;8275;48.206;16.340;2023-06-19T04:30:09;99048.91;;;24.54;41.56
16331;BME280;8275;48.206;16.340;2023-06-19T04:32:37;99047.47;;;24.72;41.32
16331;BME280;8275;48.206;16.340;2023-06-19T04:35:09;99051.56;;;24.86;41.14
16331;BME280;8275;48.206;16.340;2023-06-19T04:37:38;99054.66;;;24.97;41.11
16331;BME280;8275;48.206;16.340;2023-06-19T04:40:07;99064.41;;;25.03;41.09
16331;BME280;8275;48.206;16.340;2023-06-19T04:42:36;99060.22;;;25.09;41.03
16331;BME280;8275;48.206;16.340;2023-06-19T04:45:08;99065.91;;;25.13;40.88
16331;BME280;8275;48.206;16.340;2023-06-19T04:47:37;99066.56;;;25.22;40.84
16331;BME280;8275;48.206;16.340;2023-06-19T04:50:20;99062.78;;;25.30;40.62
16331;BME280;8275;48.206;16.340;2023-06-19T04:52:49;99068.22;;;25.38;40.64
16331;BME280;8275;48.206;16.340;2023-06-19T04:55:19;99072.09;;;25.46;40.36
16331;BME280;8275;48.206;16.340;2023-06-19T04:57:47;99072.75;;;25.55;40.44
16331;BME280;8275;48.206;16.340;2023-06-19T05:00:18;99072.94;;;25.62;40.15
16331;BME280;8275;48.206;16.340;2023-06-19T05:02:49;99070.75;;;25.71;40.37
16331;BME280;8275;48.206;16.340;2023-06-19T05:05:18;99077.84;;;25.81;39.88
16331;BME280;8275;48.206;16.340;2023-06-19T05:07:50;99070.50;;;25.92;39.96
16331;BME280;8275;48.206;16.340;2023-06-19T05:10:18;99069.94;;;26.02;39.53
16331;BME280;8275;48.206;16.340;2023-06-19T05:12:47;99079.50;;;26.13;39.61
16331;BME280;8275;48.206;16.340;2023-06-19T05:15:17;99067.69;;;26.23;39.48
16331;BME280;8275;48.206;16.340;2023-06-19T05:17:46;99070.75;;;26.33;39.04
16331;BME280;8275;48.206;16.340;2023-06-19T05:20:15;99071.44;;;26.46;38.99
16331;BME280;8275;48.206;16.340;2023-06-19T05:22:43;99067.34;;;26.59;39.16
16331;BME280;8275;48.206;16.340;2023-06-19T05:25:12;99064.78;;;26.70;38.98
16331;BME280;8275;48.206;16.340;2023-06-19T05:27:40;99073.56;;;26.84;38.53
16331;BME280;8275;48.206;16.340;2023-06-19T05:30:10;99065.72;;;26.93;38.27
16331;BME280;8275;48.206;16.340;2023-06-19T05:32:40;99067.13;;;27.02;38.34
16331;BME280;8275;48.206;16.340;2023-06-19T05:35:09;99068.16;;;27.13;38.29
16331;BME280;8275;48.206;16.340;2023-06-19T05:37:42;99072.00;;;27.25;37.73
16331;BME280;8275;48.206;16.340;2023-06-19T05:40:11;99067.38;;;27.36;37.97
16331;BME280;8275;48.206;16.340;2023-06-19T05:42:40;99067.31;;;27.51;37.79
16331;BME280;8275;48.206;16.340;2023-06-19T05:45:10;99073.97;;;27.62;37.15
16331;BME280;8275;48.206;16.340;2023-06-19T05:47:40;99076.97;;;27.73;36.98
16331;BME280;8275;48.206;16.340;2023-06-19T05:50:09;99074.84;;;27.89;36.85
16331;BME280;8275;48.206;16.340;2023-06-19T05:52:38;99072.31;;;28.03;36.89
16331;BME280;8275;48.206;16.340;2023-06-19T05:55:10;99080.56;;;28.15;35.93
16331;BME280;8275;48.206;16.340;2023-06-19T05:57:39;99077.06;;;28.22;36.10
16331;BME280;8275;48.206;16.340;2023-06-19T06:00:09;99069.16;;;28.31;35.46
16331;BME280;8275;48.206;16.340;2023-06-19T06:02:42;99077.00;;;28.44;35.36
16331;BME280;8275;48.206;16.340;2023-06-19T06:05:11;99073.53;;;28.55;35.18
16331;BME280;8275;48.206;16.340;2023-06-19T06:07:39;99080.19;;;28.66;35.01
16331;BME280;8275;48.206;16.340;2023-06-19T06:10:09;99073.50;;;28.77;34.92
16331;BME280;8275;48.206;16.340;2023-06-19T06:12:38;99080.13;;;28.92;34.33
16331;BME280;8275;48.206;16.340;2023-06-19T06:15:07;99075.88;;;29.05;34.07
16331;BME280;8275;48.206;16.340;2023-06-19T06:17:36;99074.06;;;29.19;33.80
16331;BME280;8275;48.206;16.340;2023-06-19T06:20:07;99077.78;;;29.27;33.91
16331;BME280;8275;48.206;16.340;2023-06-19T06:22:47;99079.94;;;29.37;33.69
16331;BME280;8275;48.206;16.340;2023-06-19T06:25:15;99084.44;;;29.45;33.59
16331;BME280;8275;48.206;16.340;2023-06-19T06:27:44;99089.00;;;29.57;32.92
16331;BME280;8275;48.206;16.340;2023-06-19T06:30:13;99089.09;;;29.64;32.94
16331;BME280;8275;48.206;16.340;2023-06-19T06:32:46;99087.16;;;29.71;32.67
16331;BME280;8275;48.206;16.340;2023-06-19T06:35:16;99090.47;;;29.77;32.50
16331;BME280;8275;48.206;16.340;2023-06-19T06:37:44;99092.16;;;29.85;32.16
16331;BME280;8275;48.206;16.340;2023-06-19T06:40:14;99091.44;;;29.92;32.03
16331;BME280;8275;48.206;16.340;2023-06-19T06:42:42;99094.72;;;30.01;31.96
16331;BME280;8275;48.206;16.340;2023-06-19T06:45:13;99090.38;;;30.10;31.80
16331;BME280;8275;48.206;16.340;2023-06-19T06:47:42;99092.53;;;30.24;31.84
16331;BME280;8275;48.206;16.340;2023-06-19T06:50:10;99097.16;;;30.42;31.52
16331;BME280;8275;48.206;16.340;2023-06-19T06:52:40;99088.38;;;30.58;31.06
16331;BME280;8275;48.206;16.340;2023-06-19T06:55:09;99088.06;;;30.74;30.67
16331;BME280;8275;48.206;16.340;2023-06-19T06:57:37;99089.75;;;30.85;30.70
16331;BME280;8275;48.206;16.340;2023-06-19T07:00:07;99095.88;;;30.91;30.49
16331;BME280;8275;48.206;16.340;2023-06-19T07:02:38;99092.69;;;30.96;30.44
16331;BME280;8275;48.206;16.340;2023-06-19T07:05:09;99093.53;;;31.07;30.09
16331;BME280;8275;48.206;16.340;2023-06-19T07:07:39;99092.38;;;31.22;30.04
16331;BME280;8275;48.206;16.340;2023-06-19T07:10:09;99099.31;;;31.39;29.53
16331;BME280;8275;48.206;16.340;2023-06-19T07:12:46;99100.19;;;31.46;29.33
16331;BME280;8275;48.206;16.340;2023-06-19T07:15:14;99099.81;;;31.55;29.47
16331;BME280;8275;48.206;16.340;2023-06-19T07:17:44;99094.97;;;31.66;28.88
16331;BME280;8275;48.206;16.340;2023-06-19T07:20:13;99093.41;;;31.75;28.86
16331;BME280;8275;48.206;16.340;2023-06-19T07:22:43;99093.03;;;31.84;28.85
16331;BME280;8275;48.206;16.340;2023-06-19T07:25:13;99088.56;;;31.90;28.39
16331;BME280;8275;48.206;16.340;2023-06-19T07:27:42;99093.47;;;31.97;28.32
16331;BME280;8275;48.206;16.340;2023-06-19T07:30:11;99092.66;;;32.00;28.32
16331;BME280;8275;48.206;16.340;2023-06-19T07:32:43;99092.28;;;32.12;28.29
16331;BME280;8275;48.206;16.340;2023-06-19T07:35:11;99098.34;;;32.24;27.97
16331;BME280;8275;48.206;16.340;2023-06-19T07:37:42;99097.13;;;32.32;28.07
16331;BME280;8275;48.206;16.340;2023-06-19T07:40:11;99092.28;;;32.36;28.11
16331;BME280;8275;48.206;16.340;2023-06-19T07:42:40;99096.31;;;32.35;27.59
16331;BME280;8275;48.206;16.340;2023-06-19T07:45:12;99094.28;;;32.29;27.77
16331;BME280;8275;48.206;16.340;2023-06-19T07:47:41;99096.31;;;32.32;27.66
16331;BME280;8275;48.206;16.340;2023-06-19T07:50:10;99092.25;;;32.40;27.98
16331;BME280;8275;48.206;16.340;2023-06-19T07:52:38;99098.34;;;32.49;27.67
16331;BME280;8275;48.206;16.340;2023-06-19T07:55:09;99096.34;;;32.53;27.61
16331;BME280;8275;48.206;16.340;2023-06-19T07:57:37;99102.81;;;32.61;26.95
16331;BME280;8275;48.206;16.340;2023-06-19T08:00:07;99098.34;;;32.70;26.91
16331;BME280;8275;48.206;16.340;2023-06-19T08:02:39;99103.59;;;32.82;27.22
16331;BME280;8275;48.206;16.340;2023-06-19T08:05:09;99102.75;;;32.92;26.65
16331;BME280;8275;48.206;16.340;2023-06-19T08:07:38;99101.94;;;33.02;26.88
16331;BME280;8275;48.206;16.340;2023-06-19T08:10:09;99099.88;;;33.10;26.49
16331;BME280;8275;48.206;16.340;2023-06-19T08:12:54;99104.34;;;33.11;26.27
16331;BME280;8275;48.206;16.340;2023-06-19T08:15:23;99097.44;;;33.12;26.24
16331;BME280;8275;48.206;16.340;2023-06-19T08:17:51;99101.09;;;33.12;26.15
16331;BME280;8275;48.206;16.340;2023-06-19T08:20:20;99098.25;;;33.12;26.72
16331;BME280;8275;48.206;16.340;2023-06-19T08:22:49;99097.41;;;33.15;25.89
16331;BME280;8275;48.206;16.340;2023-06-19T08:25:19;99095.41;;;33.19;25.89
16331;BME280;8275;48.206;16.340;2023-06-19T08:27:48;99096.97;;;33.28;26.31
16331;BME280;8275;48.206;16.340;2023-06-19T08:30:16;99100.19;;;33.37;26.17
16331;BME280;8275;48.206;16.340;2023-06-19T08:32:46;99097.31;;;33.44;26.09
16331;BME280;8275;48.206;16.340;2023-06-19T08:35:15;99096.06;;;33.52;26.40
16331;BME280;8275;48.206;16.340;2023-06-19T08:37:44;99092.81;;;33.57;26.57
16331;BME280;8275;48.206;16.340;2023-06-19T08:40:13;99100.91;;;33.62;26.44
16331;BME280;8275;48.206;16.340;2023-06-19T08:42:43;99105.38;;;33.63;25.78
16331;BME280;8275;48.206;16.340;2023-06-19T08:45:11;99117.56;;;33.60;26.18
16331;BME280;8275;48.206;16.340;2023-06-19T08:47:40;99122.41;;;33.59;26.35
16331;BME280;8275;48.206;16.340;2023-06-19T08:50:09;99112.25;;;33.62;26.31
16331;BME280;8275;48.206;16.340;2023-06-19T08:52:37;99112.22;;;33.69;25.90
16331;BME280;8275;48.206;16.340;2023-06-19T08:55:07;99107.75;;;33.71;26.00
16331;BME280;8275;48.206;16.340;2023-06-19T08:57:38;99127.63;;;33.71;26.06
16331;BME280;8275;48.206;16.340;2023-06-19T09:00:09;99117.91;;;33.72;25.72
16331;BME280;8275;48.206;16.340;2023-06-19T09:02:41;99119.09;;;33.71;26.12
16331;BME280;8275;48.206;16.340;2023-06-19T09:05:13;99107.78;;;33.64;25.54
16331;BME280;8275;48.206;16.340;2023-06-19T09:07:42;99113.50;;;33.57;25.73
16331;BME280;8275;48.206;16.340;2023-06-19T09:10:16;99117.97;;;33.55;25.68
16331;BME280;8275;48.206;16.340;2023-06-19T09:12:57;99113.50;;;33.57;26.22
16331;BME280;8275;48.206;16.340;2023-06-19T09:15:33;99121.59;;;33.66;26.18
16331;BME280;8275;48.206;16.340;2023-06-19T09:18:04;99122.72;;;33.75;25.54
16331;BME280;8275;48.206;16.340;2023-06-19T09:20:34;99121.50;;;33.80;25.62
16331;BME280;8275;48.206;16.340;2023-06-19T09:23:05;99122.25;;;33.87;25.87
16331;BME280;8275;48.206;16.340;2023-06-19T09:25:45;99124.25;;;33.94;25.52
16331;BME280;8275;48.206;16.340;2023-06-19T09:28:19;99124.63;;;34.03;25.20
16331;BME280;8275;48.206;16.340;2023-06-19T09:30:56;99114.06;;;34.04;25.20
16331;BME280;8275;48.206;16.340;2023-06-19T09:33:28;99106.34;;;34.04;25.04
16331;BME280;8275;48.206;16.340;2023-06-19T09:35:59;99114.88;;;34.01;25.45
16331;BME280;8275;48.206;16.340;2023-06-19T09:38:32;99116.91;;;34.00;25.65
16331;BME280;8275;48.206;16.340;2023-06-19T09:41:03;99116.50;;;34.02;25.34
16331;BME280;8275;48.206;16.340;2023-06-19T09:43:36;99127.41;;;34.10;25.13
16331;BME280;8275;48.206;16.340;2023-06-19T09:46:07;99120.03;;;34.23;24.85
16331;BME280;8275;48.206;16.340;2023-06-19T09:48:40;99121.56;;;34.31;24.30
16331;BME280;8275;48.206;16.340;2023-06-19T09:51:17;99119.13;;;34.33;24.75
16331;BME280;8275;48.206;16.340;2023-06-19T09:53:47;99120.75;;;34.34;24.41
16331;BME280;8275;48.206;16.340;2023-06-19T09:56:17;99123.97;;;34.36;24.29
16331;BME280;8275;48.206;16.340;2023-06-19T09:58:53;99119.44;;;34.42;24.48
16331;BME280;8275;48.206;16.340;2023-06-19T10:01:24;99124.66;;;34.54;24.91
16331;BME280;8275;48.206;16.340;2023-06-19T10:04:04;99120.94;;;34.61;24.39
16331;BME280;8275;48.206;16.340;2023-06-19T10:06:41;99119.16;;;34.78;24.34
16331;BME280;8275;48.206;16.340;2023-06-19T10:09:10;99120.59;;;34.93;24.46
16331;BME280;8275;48.206;16.340;2023-06-19T10:11:50;99118.91;;;35.02;24.76
16331;BME280;8275;48.206;16.340;2023-06-19T10:14:20;99104.53;;;35.16;24.28
16331;BME280;8275;48.206;16.340;2023-06-19T10:16:50;99108.09;;;35.24;24.06
16331;BME280;8275;48.206;16.340;2023-06-19T10:19:21;99104.34;;;35.31;24.08
16331;BME280;8275;48.206;16.340;2023-06-19T10:21:53;99100.28;;;35.32;24.14
16331;BME280;8275;48.206;16.340;2023-06-19T10:24:25;99108.34;;;35.37;23.78
16331;BME280;8275;48.206;16.340;2023-06-19T10:26:59;99101.41;;;35.38;23.40
16331;BME280;8275;48.206;16.340;2023-06-19T10:29:38;99095.78;;;35.34;23.76
16331;BME280;8275;48.206;16.340;2023-06-19T10:32:11;99092.06;;;35.37;23.57
16331;BME280;8275;48.206;16.340;2023-06-19T10:34:40;99099.00;;;35.36;23.57
16331;BME280;8275;48.206;16.340;2023-06-19T10:37:13;99100.66;;;35.34;23.69
16331;BME280;8275;48.206;16.340;2023-06-19T10:39:42;99098.66;;;35.31;23.59
16331;BME280;8275;48.206;16.340;2023-06-19T10:42:11;99101.94;;;35.29;23.58
16331;BME280;8275;48.206;16.340;2023-06-19T10:44:39;99097.06;;;35.30;23.31
16331;BME280;8275;48.206;16.340;2023-06-19T10:47:10;99096.47;;;35.42;23.64
16331;BME280;8275;48.206;16.340;2023-06-19T10:49:39;99100.63;;;35.67;23.36
16331;BME280;8275;48.206;16.340;2023-06-19T10:52:08;99097.34;;;35.99;23.21
16331;BME280;8275;48.206;16.340;2023-06-19T10:54:36;99102.47;;;36.34;23.16
16331;BME280;8275;48.206;16.340;2023-06-19T10:57:05;99106.59;;;36.80;22.70
16331;BME280;8275;48.206;16.340;2023-06-19T10:59:34;99098.69;;;37.30;22.14
16331;BME280;8275;48.206;16.340;2023-06-19T11:02:03;99095.09;;;37.85;21.81
16331;BME280;8275;48.206;16.340;2023-06-19T11:04:37;99097.75;;;38.44;21.62
16331;BME280;8275;48.206;16.340;2023-06-19T11:07:08;99087.13;;;39.05;20.87
16331;BME280;8275;48.206;16.340;2023-06-19T11:09:36;99084.00;;;39.57;19.93
16331;BME280;8275;48.206;16.340;2023-06-19T11:12:06;99085.47;;;40.03;19.91
16331;BME280;8275;48.206;16.340;2023-06-19T11:14:36;99077.53;;;40.45;19.07
16331;BME280;8275;48.206;16.340;2023-06-19T11:17:07;99085.59;;;40.84;18.92
16331;BME280;8275;48.206;16.340;2023-06-19T11:19:37;99075.34;;;41.17;18.44
16331;BME280;8275;48.206;16.340;2023-06-19T11:22:09;99073.38;;;41.49;18.13
16331;BME280;8275;48.206;16.340;2023-06-19T11:24:43;99084.72;;;41.74;17.92
16331;BME280;8275;48.206;16.340;2023-06-19T11:27:22;99085.47;;;41.96;17.75
16331;BME280;8275;48.206;16.340;2023-06-19T11:29:58;99083.66;;;42.11;17.22
16331;BME280;8275;48.206;16.340;2023-06-19T11:32:31;99079.09;;;42.32;16.81
16331;BME280;8275;48.206;16.340;2023-06-19T11:35:09;99079.94;;;42.50;16.90
16331;BME280;8275;48.206;16.340;2023-06-19T11:37:40;99088.97;;;42.71;16.48
16331;BME280;8275;48.206;16.340;2023-06-19T11:40:10;99083.41;;;43.03;16.17
16331;BME280;8275;48.206;16.340;2023-06-19T11:42:47;99080.97;;;43.47;15.59
16331;BME280;8275;48.206;16.340;2023-06-19T11:45:16;99087.13;;;44.00;15.03
16331;BME280;8275;48.206;16.340;2023-06-19T11:47:45;99074.53;;;44.54;14.12
16331;BME280;8275;48.206;16.340;2023-06-19T11:50:15;99071.81;;;44.98;13.52
16331;BME280;8275;48.206;16.340;2023-06-19T11:52:44;99067.34;;;45.35;13.13
16331;BME280;8275;48.206;16.340;2023-06-19T11:55:13;99068.06;;;45.74;12.83
16331;BME280;8275;48.206;16.340;2023-06-19T11:57:43;99059.63;;;46.20;11.86
16331;BME280;8275;48.206;16.340;2023-06-19T12:00:16;99070.81;;;46.61;11.84
16331;BME280;8275;48.206;16.340;2023-06-19T12:02:45;99069.84;;;47.05;11.53
16331;BME280;8275;48.206;16.340;2023-06-19T12:05:17;99063.81;;;47.34;10.96
16331;BME280;8275;48.206;16.340;2023-06-19T12:07:45;99061.75;;;47.60;10.32
16331;BME280;8275;48.206;16.340;2023-06-19T12:10:14;99057.03;;;47.94;10.35
16331;BME280;8275;48.206;16.340;2023-06-19T12:12:42;99057.94;;;48.06;10.51
16331;BME280;8275;48.206;16.340;2023-06-19T12:15:11;99060.28;;;48.02;10.58
16331;BME280;8275;48.206;16.340;2023-06-19T12:17:39;99054.28;;;48.11;10.54
16331;BME280;8275;48.206;16.340;2023-06-19T12:20:09;99052.75;;;48.15;10.17
16331;BME280;8275;48.206;16.340;2023-06-19T12:22:40;99055.44;;;48.24;9.97
16331;BME280;8275;48.206;16.340;2023-06-19T12:25:09;99046.97;;;48.63;10.11
16331;BME280;8275;48.206;16.340;2023-06-19T12:27:38;99052.00;;;49.16;9.85
16331;BME280;8275;48.206;16.340;2023-06-19T12:30:08;99048.44;;;49.71;9.17
16331;BME280;8275;48.206;16.340;2023-06-19T12:32:37;99044.44;;;50.02;8.84
16331;BME280;8275;48.206;16.340;2023-06-19T12:35:07;99041.53;;;50.07;9.11
16331;BME280;8275;48.206;16.340;2023-06-19T12:37:35;99042.84;;;50.06;8.88
16331;BME280;8275;48.206;16.340;2023-06-19T12:40:07;99038.88;;;50.04;8.29
16331;BME280;8275;48.206;16.340;2023-06-19T12:42:38;99034.38;;;50.19;8.75
16331;BME280;8275;48.206;16.340;2023-06-19T12:45:08;99042.53;;;50.43;8.27
16331;BME280;8275;48.206;16.340;2023-06-19T12:47:37;99042.78;;;50.67;8.19
16331;BME280;8275;48.206;16.340;2023-06-19T12:50:07;99045.09;;;50.91;8.30
16331;BME280;8275;48.206;16.340;2023-06-19T12:52:37;99048.09;;;51.26;8.06
16331;BME280;8275;48.206;16.340;2023-06-19T12:55:08;99045.22;;;51.61;7.73
16331;BME280;8275;48.206;16.340;2023-06-19T12:57:36;99044.34;;;52.02;7.73
16331;BME280;8275;48.206;16.340;2023-06-19T13:00:07;99038.78;;;52.33;7.20
16331;BME280;8275;48.206;16.340;2023-06-19T13:02:36;99031.13;;;52.49;7.39
16331;BME280;8275;48.206;16.340;2023-06-19T13:05:05;99025.97;;;52.61;7.04
16331;BME280;8275;48.206;16.340;2023-06-19T13:07:34;99029.56;;;52.72;7.00
16331;BME280;8275;48.206;16.340;2023-06-19T13:10:03;99034.78;;;52.79;6.40
16331;BME280;8275;48.206;16.340;2023-06-19T13:12:35;99028.94;;;52.79;6.64
16331;BME280;8275;48.206;16.340;2023-06-19T13:15:05;99029.41;;;52.83;6.46